sensor_id;sensor_type;location;lat;lon;timestamp;pressure;altitude;pressure_sealevel;temperature;humidity
58753;BME280;44525;46.052;13.610;2023-03-03T00:02:01;100734.91;;;7.00;nan
58753;BME280;44525;46.052;13.610;2023-03-03T00:04:27;100729.75;;;6.98;nan
58753;BME280;44525;46.052;13.610;2023-03-03T00:06:52;100736.13;;;6.92;nan
58753;BME280;44525;46.052;13.610;2023-03-03T00:09:17;100737.56;;;6.73;nan
58753;BME280;44525;46.052;13.610;2023-03-03T00:11:43;100734.06;;;6.72;nan
58753;BME280;44525;46.052;13.610;2023-03-03T00:14:27;100728.25;;;6.85;nan
58753;BME280;44525;46.052;13.610;2023-03-03T00:16:53;100725.34;;;6.92;nan
58753;BME280;44525;46.052;13.610;2023-03-03T00:19:19;100724.34;;;6.98;nan
58753;BME280;44525;46.052;13.610;2023-03-03T00:21:47;100730.16;;;6.85;nan
58753;BME280;44525;46.052;13.610;2023-03-03T00:26:40;100727.16;;;7.09;nan
58753;BME280;44525;46.052;13.610;2023-03-03T00:29:23;100729.22;;;7.01;nan
58753;BME280;44525;46.052;13.610;2023-03-03T00:31:51;100728.81;;;7.15;nan
58753;BME280;44525;46.052;13.610;2023-03-03T00:36:42;100717.78;;;7.22;nan
58753;BME280;44525;46.052;13.610;2023-03-03T00:41:45;100713.94;;;7.12;nan
58753;BME280;44525;46.052;13.610;2023-03-03T00:46:52;100717.06;;;7.31;nan
58753;BME280;44525;46.052;13.610;2023-03-03T00:49:23;100701.13;;;7.30;nan
58753;BME280;44525;46.052;13.610;2023-03-03T00:51:51;100714.31;;;7.26;nan
58753;BME280;44525;46.052;13.610;2023-03-03T00:54:17;100700.16;;;7.14;nan
58753;BME280;44525;46.052;13.610;2023-03-03T00:56:43;100705.38;;;7.20;nan
58753;BME280;44525;46.052;13.610;2023-03-03T00:59:08;100701.38;;;7.28;nan
58753;BME280;44525;46.052;13.610;2023-03-03T01:01:34;100700.69;;;7.11;nan
58753;BME280;44525;46.052;13.610;2023-03-03T01:03:59;100697.53;;;7.19;nan
58753;BME280;44525;46.052;13.610;2023-03-03T01:06:24;100705.19;;;7.00;nan
58753;BME280;44525;46.052;13.610;2023-03-03T01:08:50;100691.78;;;6.83;nan
58753;BME280;44525;46.052;13.610;2023-03-03T01:11:20;100687.69;;;7.08;nan
58753;BME280;44525;46.052;13.610;2023-03-03T01:13:48;100690.75;;;6.89;nan
58753;BME280;44525;46.052;13.610;2023-03-03T01:16:14;100688.06;;;6.89;nan
58753;BME280;44525;46.052;13.610;2023-03-03T01:18:40;100684.34;;;6.95;nan
58753;BME280;44525;46.052;13.610;2023-03-03T01:21:07;100682.75;;;6.99;nan
58753;BME280;44525;46.052;13.610;2023-03-03T01:23:33;100683.97;;;7.14;nan
58753;BME280;44525;46.052;13.610;2023-03-03T01:25:58;100680.97;;;7.10;nan
58753;BME280;44525;46.052;13.610;2023-03-03T01:28:24;100683.34;;;7.07;nan
58753;BME280;44525;46.052;13.610;2023-03-03T01:30:49;100666.38;;;7.11;nan
58753;BME280;44525;46.052;13.610;2023-03-03T01:33:15;100671.94;;;6.99;nan
58753;BME280;44525;46.052;13.610;2023-03-03T01:35:47;100668.56;;;7.14;nan
58753;BME280;44525;46.052;13.610;2023-03-03T01:38:14;100673.75;;;7.21;nan
58753;BME280;44525;46.052;13.610;2023-03-03T01:40:39;100669.16;;;7.22;nan
58753;BME280;44525;46.052;13.610;2023-03-03T01:43:05;100666.09;;;7.08;nan
58753;BME280;44525;46.052;13.610;2023-03-03T01:48:15;100662.09;;;7.15;nan
58753;BME280;44525;46.052;13.610;2023-03-03T01:50:56;100659.47;;;7.20;nan
58753;BME280;44525;46.052;13.610;2023-03-03T01:53:36;100666.00;;;7.30;nan
58753;BME280;44525;46.052;13.610;2023-03-03T01:56:05;100664.94;;;7.31;nan
58753;BME280;44525;46.052;13.610;2023-03-03T01:58:36;100668.13;;;7.28;nan
58753;BME280;44525;46.052;13.610;2023-03-03T02:01:07;100669.44;;;7.20;nan
58753;BME280;44525;46.052;13.610;2023-03-03T02:03:33;100660.47;;;7.14;nan
58753;BME280;44525;46.052;13.610;2023-03-03T02:06:09;100649.13;;;7.17;nan
58753;BME280;44525;46.052;13.610;2023-03-03T02:08:44;100644.84;;;7.16;nan
58753;BME280;44525;46.052;13.610;2023-03-03T02:11:15;100648.91;;;7.19;nan
58753;BME280;44525;46.052;13.610;2023-03-03T02:13:40;100637.59;;;7.22;nan
58753;BME280;44525;46.052;13.610;2023-03-03T02:16:06;100643.63;;;7.02;nan
58753;BME280;44525;46.052;13.610;2023-03-03T02:18:32;100638.66;;;7.21;nan
58753;BME280;44525;46.052;13.610;2023-03-03T02:21:13;100637.50;;;7.12;nan
58753;BME280;44525;46.052;13.610;2023-03-03T02:26:43;100623.50;;;7.20;nan
58753;BME280;44525;46.052;13.610;2023-03-03T02:29:09;100619.66;;;7.11;nan
58753;BME280;44525;46.052;13.610;2023-03-03T02:31:35;100620.53;;;7.16;nan
58753;BME280;44525;46.052;13.610;2023-03-03T02:34:01;100622.66;;;7.14;nan
58753;BME280;44525;46.052;13.610;2023-03-03T02:36:35;100630.19;;;7.07;nan
58753;BME280;44525;46.052;13.610;2023-03-03T02:39:14;100614.53;;;7.09;nan
58753;BME280;44525;46.052;13.610;2023-03-03T02:41:59;100615.91;;;7.17;nan
58753;BME280;44525;46.052;13.610;2023-03-03T02:44:28;100620.47;;;7.11;nan
58753;BME280;44525;46.052;13.610;2023-03-03T02:46:55;100616.09;;;7.05;nan
58753;BME280;44525;46.052;13.610;2023-03-03T02:49:23;100614.53;;;7.09;nan
58753;BME280;44525;46.052;13.610;2023-03-03T02:51:50;100609.38;;;7.08;nan
58753;BME280;44525;46.052;13.610;2023-03-03T02:54:17;100615.81;;;7.01;nan
58753;BME280;44525;46.052;13.610;2023-03-03T02:56:43;100606.59;;;6.97;nan
58753;BME280;44525;46.052;13.610;2023-03-03T02:59:09;100604.44;;;6.99;nan
58753;BME280;44525;46.052;13.610;2023-03-03T03:01:35;100608.25;;;7.03;nan
58753;BME280;44525;46.052;13.610;2023-03-03T03:04:19;100612.09;;;7.13;nan
58753;BME280;44525;46.052;13.610;2023-03-03T03:06:45;100615.72;;;7.24;nan
58753;BME280;44525;46.052;13.610;2023-03-03T03:09:12;100614.81;;;7.13;nan
58753;BME280;44525;46.052;13.610;2023-03-03T03:11:38;100604.56;;;7.15;nan
58753;BME280;44525;46.052;13.610;2023-03-03T03:14:05;100604.41;;;6.94;nan
58753;BME280;44525;46.052;13.610;2023-03-03T03:16:30;100602.06;;;7.03;nan
58753;BME280;44525;46.052;13.610;2023-03-03T03:18:56;100605.56;;;7.03;nan
58753;BME280;44525;46.052;13.610;2023-03-03T03:21:22;100607.47;;;7.03;nan
58753;BME280;44525;46.052;13.610;2023-03-03T03:23:47;100605.72;;;6.92;nan
58753;BME280;44525;46.052;13.610;2023-03-03T03:26:13;100600.66;;;6.95;nan
58753;BME280;44525;46.052;13.610;2023-03-03T03:28:38;100601.06;;;6.82;nan
58753;BME280;44525;46.052;13.610;2023-03-03T03:31:05;100608.84;;;7.11;nan
58753;BME280;44525;46.052;13.610;2023-03-03T03:33:31;100604.09;;;6.91;nan
58753;BME280;44525;46.052;13.610;2023-03-03T03:35:58;100603.81;;;6.87;nan
58753;BME280;44525;46.052;13.610;2023-03-03T03:38:24;100599.34;;;6.71;nan
58753;BME280;44525;46.052;13.610;2023-03-03T03:40:51;100597.91;;;6.90;nan
58753;BME280;44525;46.052;13.610;2023-03-03T03:43:17;100594.06;;;6.86;nan
58753;BME280;44525;46.052;13.610;2023-03-03T03:45:42;100593.69;;;7.05;nan
58753;BME280;44525;46.052;13.610;2023-03-03T03:48:08;100595.81;;;7.02;nan
58753;BME280;44525;46.052;13.610;2023-03-03T03:50:33;100594.72;;;6.98;nan
58753;BME280;44525;46.052;13.610;2023-03-03T03:52:59;100590.69;;;6.68;nan
58753;BME280;44525;46.052;13.610;2023-03-03T03:55:24;100590.78;;;6.79;nan
58753;BME280;44525;46.052;13.610;2023-03-03T03:57:49;100597.81;;;6.80;nan
58753;BME280;44525;46.052;13.610;2023-03-03T04:00:15;100596.91;;;7.01;nan
58753;BME280;44525;46.052;13.610;2023-03-03T04:02:41;100591.63;;;6.84;nan
58753;BME280;44525;46.052;13.610;2023-03-03T04:05:06;100591.72;;;6.95;nan
58753;BME280;44525;46.052;13.610;2023-03-03T04:07:32;100594.03;;;6.81;nan
58753;BME280;44525;46.052;13.610;2023-03-03T04:09:57;100588.13;;;6.84;nan
58753;BME280;44525;46.052;13.610;2023-03-03T04:12:23;100583.53;;;6.84;nan
58753;BME280;44525;46.052;13.610;2023-03-03T04:14:48;100584.22;;;6.70;nan
58753;BME280;44525;46.052;13.610;2023-03-03T04:17:18;100579.78;;;6.85;nan
58753;BME280;44525;46.052;13.610;2023-03-03T04:19:44;100588.84;;;6.74;nan
58753;BME280;44525;46.052;13.610;2023-03-03T04:22:09;100592.22;;;6.59;nan
58753;BME280;44525;46.052;13.610;2023-03-03T04:24:35;100586.41;;;6.73;nan
58753;BME280;44525;46.052;13.610;2023-03-03T04:27:00;100578.38;;;6.78;nan
58753;BME280;44525;46.052;13.610;2023-03-03T04:29:26;100584.31;;;6.80;nan
58753;BME280;44525;46.052;13.610;2023-03-03T04:31:51;100590.66;;;6.63;nan
58753;BME280;44525;46.052;13.610;2023-03-03T04:34:16;100584.22;;;6.70;nan
58753;BME280;44525;46.052;13.610;2023-03-03T04:36:42;100589.53;;;6.59;nan
58753;BME280;44525;46.052;13.610;2023-03-03T04:39:07;100602.31;;;6.69;nan
58753;BME280;44525;46.052;13.610;2023-03-03T04:41:32;100592.69;;;6.51;nan
58753;BME280;44525;46.052;13.610;2023-03-03T04:43:58;100597.63;;;6.59;nan
58753;BME280;44525;46.052;13.610;2023-03-03T04:46:23;100596.56;;;6.60;nan
58753;BME280;44525;46.052;13.610;2023-03-03T04:48:49;100594.91;;;6.59;nan
58753;BME280;44525;46.052;13.610;2023-03-03T04:51:14;100587.94;;;6.63;nan
58753;BME280;44525;46.052;13.610;2023-03-03T04:53:40;100591.50;;;6.69;nan
58753;BME280;44525;46.052;13.610;2023-03-03T04:56:06;100593.09;;;6.65;nan
58753;BME280;44525;46.052;13.610;2023-03-03T04:58:31;100593.44;;;6.74;nan
58753;BME280;44525;46.052;13.610;2023-03-03T05:00:57;100591.50;;;6.69;nan
58753;BME280;44525;46.052;13.610;2023-03-03T05:03:23;100587.94;;;6.63;nan
58753;BME280;44525;46.052;13.610;2023-03-03T05:05:49;100591.78;;;6.67;nan
58753;BME280;44525;46.052;13.610;2023-03-03T05:08:15;100598.38;;;6.55;nan
58753;BME280;44525;46.052;13.610;2023-03-03T05:10:40;100592.84;;;6.66;nan
58753;BME280;44525;46.052;13.610;2023-03-03T05:13:06;100594.56;;;6.78;nan
58753;BME280;44525;46.052;13.610;2023-03-03T05:15:32;100586.28;;;6.90;nan
58753;BME280;44525;46.052;13.610;2023-03-03T05:17:58;100586.56;;;6.93;nan
58753;BME280;44525;46.052;13.610;2023-03-03T05:20:24;100589.72;;;6.80;nan
58753;BME280;44525;46.052;13.610;2023-03-03T05:22:50;100580.72;;;6.69;nan
58753;BME280;44525;46.052;13.610;2023-03-03T05:25:16;100584.47;;;6.68;nan
58753;BME280;44525;46.052;13.610;2023-03-03T05:27:41;100583.41;;;6.69;nan
58753;BME280;44525;46.052;13.610;2023-03-03T05:30:09;100575.22;;;6.59;nan
58753;BME280;44525;46.052;13.610;2023-03-03T05:32:35;100580.63;;;6.59;nan
58753;BME280;44525;46.052;13.610;2023-03-03T05:35:01;100580.91;;;6.62;nan
58753;BME280;44525;46.052;13.610;2023-03-03T05:37:26;100582.03;;;6.66;nan
58753;BME280;44525;46.052;13.610;2023-03-03T05:39:51;100583.16;;;6.71;nan
58753;BME280;44525;46.052;13.610;2023-03-03T05:42:17;100592.28;;;6.64;nan
58753;BME280;44525;46.052;13.610;2023-03-03T05:44:42;100588.28;;;6.72;nan
58753;BME280;44525;46.052;13.610;2023-03-03T05:47:08;100590.66;;;6.63;nan
58753;BME280;44525;46.052;13.610;2023-03-03T05:49:34;100584.19;;;6.64;nan
58753;BME280;44525;46.052;13.610;2023-03-03T05:51:59;100591.94;;;6.56;nan
58753;BME280;44525;46.052;13.610;2023-03-03T05:54:25;100593.94;;;6.71;nan
58753;BME280;44525;46.052;13.610;2023-03-03T05:56:50;100584.38;;;6.58;nan
58753;BME280;44525;46.052;13.610;2023-03-03T05:59:15;100592.84;;;6.66;nan
58753;BME280;44525;46.052;13.610;2023-03-03T06:01:41;100601.53;;;6.74;nan
58753;BME280;44525;46.052;13.610;2023-03-03T06:04:06;100596.91;;;6.69;nan
58753;BME280;44525;46.052;13.610;2023-03-03T06:06:32;100598.13;;;6.56;nan
58753;BME280;44525;46.052;13.610;2023-03-03T06:08:58;100592.28;;;6.64;nan
58753;BME280;44525;46.052;13.610;2023-03-03T06:11:23;100603.38;;;6.68;nan
58753;BME280;44525;46.052;13.610;2023-03-03T06:13:49;100601.56;;;6.79;nan
58753;BME280;44525;46.052;13.610;2023-03-03T06:16:14;100598.59;;;6.80;nan
58753;BME280;44525;46.052;13.610;2023-03-03T06:18:39;100601.06;;;6.82;nan
58753;BME280;44525;46.052;13.610;2023-03-03T06:21:05;100595.75;;;6.92;nan
58753;BME280;44525;46.052;13.610;2023-03-03T06:23:30;100605.72;;;6.92;nan
58753;BME280;44525;46.052;13.610;2023-03-03T06:25:56;100605.56;;;7.03;nan
58753;BME280;44525;46.052;13.610;2023-03-03T06:28:21;100610.19;;;7.08;nan
58753;BME280;44525;46.052;13.610;2023-03-03T06:30:52;100606.09;;;7.00;nan
58753;BME280;44525;46.052;13.610;2023-03-03T06:33:17;100609.97;;;7.15;nan
58753;BME280;44525;46.052;13.610;2023-03-03T06:35:42;100608.63;;;7.17;nan
58753;BME280;44525;46.052;13.610;2023-03-03T06:38:08;100610.56;;;7.22;nan
58753;BME280;44525;46.052;13.610;2023-03-03T06:40:33;100616.69;;;7.12;nan
58753;BME280;44525;46.052;13.610;2023-03-03T06:42:59;100613.53;;;7.20;nan
58753;BME280;44525;46.052;13.610;2023-03-03T06:45:26;100609.47;;;7.23;nan
58753;BME280;44525;46.052;13.610;2023-03-03T06:47:51;100610.00;;;7.20;nan
58753;BME280;44525;46.052;13.610;2023-03-03T06:50:17;100616.06;;;7.32;nan
58753;BME280;44525;46.052;13.610;2023-03-03T06:52:44;100622.53;;;7.36;nan
58753;BME280;44525;46.052;13.610;2023-03-03T06:55:12;100622.25;;;7.33;nan
58753;BME280;44525;46.052;13.610;2023-03-03T06:57:41;100619.81;;;7.31;nan
58753;BME280;44525;46.052;13.610;2023-03-03T07:00:14;100619.50;;;7.28;nan
58753;BME280;44525;46.052;13.610;2023-03-03T07:02:40;100629.31;;;7.34;nan
58753;BME280;44525;46.052;13.610;2023-03-03T07:05:11;100627.94;;;7.36;nan
58753;BME280;44525;46.052;13.610;2023-03-03T07:07:38;100626.34;;;7.41;nan
58753;BME280;44525;46.052;13.610;2023-03-03T07:10:24;100629.88;;;7.41;nan
58753;BME280;44525;46.052;13.610;2023-03-03T07:12:51;100639.13;;;7.50;nan
58753;BME280;44525;46.052;13.610;2023-03-03T07:15:23;100630.19;;;7.50;nan
58753;BME280;44525;46.052;13.610;2023-03-03T07:17:55;100636.16;;;7.52;nan
58753;BME280;44525;46.052;13.610;2023-03-03T07:20:45;100643.41;;;7.46;nan
58753;BME280;44525;46.052;13.610;2023-03-03T07:23:29;100643.00;;;7.65;nan
58753;BME280;44525;46.052;13.610;2023-03-03T07:25:58;100642.75;;;7.66;nan
58753;BME280;44525;46.052;13.610;2023-03-03T07:28:25;100647.63;;;7.69;nan
58753;BME280;44525;46.052;13.610;2023-03-03T07:30:53;100635.19;;;7.73;nan
58753;BME280;44525;46.052;13.610;2023-03-03T07:33:33;100634.13;;;7.69;nan
58753;BME280;44525;46.052;13.610;2023-03-03T07:36:01;100636.34;;;7.88;nan
58753;BME280;44525;46.052;13.610;2023-03-03T07:38:43;100641.03;;;8.03;nan
58753;BME280;44525;46.052;13.610;2023-03-03T07:41:17;100645.41;;;8.09;nan
58753;BME280;44525;46.052;13.610;2023-03-03T07:44:16;100637.56;;;8.07;nan
58753;BME280;44525;46.052;13.610;2023-03-03T07:46:47;100647.00;;;8.10;nan
58753;BME280;44525;46.052;13.610;2023-03-03T07:49:33;100645.16;;;8.16;nan
58753;BME280;44525;46.052;13.610;2023-03-03T07:52:00;100644.34;;;8.20;nan
58753;BME280;44525;46.052;13.610;2023-03-03T07:54:29;100645.19;;;8.21;nan
58753;BME280;44525;46.052;13.610;2023-03-03T07:57:10;100654.13;;;8.32;nan
58753;BME280;44525;46.052;13.610;2023-03-03T07:59:43;100658.00;;;8.46;nan
58753;BME280;44525;46.052;13.610;2023-03-03T08:02:40;100648.81;;;8.52;nan
58753;BME280;44525;46.052;13.610;2023-03-03T08:05:43;100648.03;;;8.72;nan
58753;BME280;44525;46.052;13.610;2023-03-03T08:08:13;100653.19;;;8.69;nan
58753;BME280;44525;46.052;13.610;2023-03-03T08:10:46;100651.31;;;8.74;nan
58753;BME280;44525;46.052;13.610;2023-03-03T08:13:17;100659.44;;;8.95;nan
58753;BME280;44525;46.052;13.610;2023-03-03T08:15:45;100665.41;;;9.18;nan
58753;BME280;44525;46.052;13.610;2023-03-03T08:18:20;100661.06;;;9.37;nan
58753;BME280;44525;46.052;13.610;2023-03-03T08:20:48;100664.84;;;9.41;nan
58753;BME280;44525;46.052;13.610;2023-03-03T08:23:15;100656.47;;;9.43;nan
58753;BME280;44525;46.052;13.610;2023-03-03T08:25:41;100661.63;;;9.50;nan
58753;BME280;44525;46.052;13.610;2023-03-03T08:28:08;100658.31;;;9.68;nan
58753;BME280;44525;46.052;13.610;2023-03-03T08:30:33;100656.41;;;9.74;nan
58753;BME280;44525;46.052;13.610;2023-03-03T08:32:59;100652.34;;;9.76;nan
58753;BME280;44525;46.052;13.610;2023-03-03T08:35:25;100651.56;;;9.60;nan
58753;BME280;44525;46.052;13.610;2023-03-03T08:37:50;100668.63;;;9.51;nan
58753;BME280;44525;46.052;13.610;2023-03-03T08:40:16;100663.50;;;9.44;nan
58753;BME280;44525;46.052;13.610;2023-03-03T08:42:41;100658.88;;;9.60;nan
58753;BME280;44525;46.052;13.610;2023-03-03T08:45:06;100661.56;;;9.70;nan
58753;BME280;44525;46.052;13.610;2023-03-03T08:47:32;100651.78;;;9.79;nan
58753;BME280;44525;46.052;13.610;2023-03-03T08:49:58;100653.66;;;9.89;nan
58753;BME280;44525;46.052;13.610;2023-03-03T08:52:23;100660.69;;;9.90;nan
58753;BME280;44525;46.052;13.610;2023-03-03T08:54:48;100660.41;;;9.97;nan
58753;BME280;44525;46.052;13.610;2023-03-03T08:57:14;100666.03;;;10.21;nan
58753;BME280;44525;46.052;13.610;2023-03-03T08:59:39;100663.31;;;10.26;nan
58753;BME280;44525;46.052;13.610;2023-03-03T09:02:05;100672.28;;;10.22;nan
58753;BME280;44525;46.052;13.610;2023-03-03T09:04:31;100671.25;;;10.07;nan
58753;BME280;44525;46.052;13.610;2023-03-03T09:06:56;100670.72;;;9.95;nan
58753;BME280;44525;46.052;13.610;2023-03-03T09:09:22;100673.41;;;10.05;nan
58753;BME280;44525;46.052;13.610;2023-03-03T09:11:48;100677.75;;;10.06;nan
58753;BME280;44525;46.052;13.610;2023-03-03T09:14:15;100670.72;;;10.00;nan
58753;BME280;44525;46.052;13.610;2023-03-03T09:19:25;100680.56;;;9.70;nan
58753;BME280;44525;46.052;13.610;2023-03-03T09:21:53;100682.69;;;9.83;nan
58753;BME280;44525;46.052;13.610;2023-03-03T09:24:29;100687.03;;;9.79;nan
58753;BME280;44525;46.052;13.610;2023-03-03T09:26:55;100690.84;;;9.78;nan
58753;BME280;44525;46.052;13.610;2023-03-03T09:29:36;100696.81;;;9.75;nan
58753;BME280;44525;46.052;13.610;2023-03-03T09:32:29;100695.75;;;9.66;nan
58753;BME280;44525;46.052;13.610;2023-03-03T09:34:55;100701.16;;;9.61;nan
58753;BME280;44525;46.052;13.610;2023-03-03T09:37:23;100701.16;;;9.71;nan
58753;BME280;44525;46.052;13.610;2023-03-03T09:39:52;100699.47;;;9.96;nan
58753;BME280;44525;46.052;13.610;2023-03-03T09:50:25;100702.78;;;9.82;nan
58753;BME280;44525;46.052;13.610;2023-03-03T10:09:07;100706.47;;;10.23;nan
58753;BME280;44525;46.052;13.610;2023-03-03T10:17:17;100714.31;;;10.40;nan
58753;BME280;44525;46.052;13.610;2023-03-03T10:20:17;100715.25;;;10.64;nan
58753;BME280;44525;46.052;13.610;2023-03-03T10:23:37;100714.00;;;10.46;nan
58753;BME280;44525;46.052;13.610;2023-03-03T10:32:02;100714.09;;;11.20;nan
58753;BME280;44525;46.052;13.610;2023-03-03T10:37:30;100706.53;;;11.52;nan
58753;BME280;44525;46.052;13.610;2023-03-03T10:42:59;100703.72;;;11.62;nan
58753;BME280;44525;46.052;13.610;2023-03-03T10:51:02;100705.94;;;11.84;nan
58753;BME280;44525;46.052;13.610;2023-03-03T10:54:22;100704.25;;;11.88;nan
58753;BME280;44525;46.052;13.610;2023-03-03T10:57:22;100702.88;;;11.96;nan
58753;BME280;44525;46.052;13.610;2023-03-03T11:02:16;100695.22;;;11.98;nan
58753;BME280;44525;46.052;13.610;2023-03-03T11:07:47;100696.81;;;12.23;nan
58753;BME280;44525;46.052;13.610;2023-03-03T11:16:19;100696.50;;;12.30;nan
58753;BME280;44525;46.052;13.610;2023-03-03T11:19:11;100697.53;;;12.10;nan
58753;BME280;44525;46.052;13.610;2023-03-03T11:30:02;100684.75;;;12.29;nan
58753;BME280;44525;46.052;13.610;2023-03-03T11:37:45;100685.84;;;12.09;nan
58753;BME280;44525;46.052;13.610;2023-03-03T11:40:25;100680.91;;;12.11;nan
58753;BME280;44525;46.052;13.610;2023-03-03T11:43:09;100680.31;;;12.15;nan
58753;BME280;44525;46.052;13.610;2023-03-03T11:45:44;100678.50;;;12.29;nan
58753;BME280;44525;46.052;13.610;2023-03-03T11:48:15;100677.72;;;12.28;nan
58753;BME280;44525;46.052;13.610;2023-03-03T11:50:54;100680.03;;;12.40;nan
58753;BME280;44525;46.052;13.610;2023-03-03T11:56:49;100667.56;;;12.34;nan
58753;BME280;44525;46.052;13.610;2023-03-03T12:02:00;100658.88;;;12.51;nan
58753;BME280;44525;46.052;13.610;2023-03-03T12:04:55;100661.63;;;12.70;nan
58753;BME280;44525;46.052;13.610;2023-03-03T12:07:43;100663.16;;;12.57;nan
58753;BME280;44525;46.052;13.610;2023-03-03T12:13:05;100652.53;;;12.37;nan
58753;BME280;44525;46.052;13.610;2023-03-03T12:15:43;100651.59;;;12.46;nan
58753;BME280;44525;46.052;13.610;2023-03-03T12:23:55;100653.78;;;12.25;nan
58753;BME280;44525;46.052;13.610;2023-03-03T12:29:04;100660.78;;;12.32;nan
58753;BME280;44525;46.052;13.610;2023-03-03T12:34:20;100653.03;;;12.20;nan
58753;BME280;44525;46.052;13.610;2023-03-03T12:37:07;100651.56;;;12.27;nan
58753;BME280;44525;46.052;13.610;2023-03-03T12:40:09;100652.03;;;12.35;nan
58753;BME280;44525;46.052;13.610;2023-03-03T12:51:02;100644.91;;;12.39;nan
58753;BME280;44525;46.052;13.610;2023-03-03T12:53:37;100648.06;;;12.46;nan
58753;BME280;44525;46.052;13.610;2023-03-03T12:56:11;100651.59;;;12.46;nan
58753;BME280;44525;46.052;13.610;2023-03-03T12:58:59;100655.06;;;12.52;nan
58753;BME280;44525;46.052;13.610;2023-03-03T13:10:23;100647.06;;;12.18;nan
58753;BME280;44525;46.052;13.610;2023-03-03T13:12:52;100640.47;;;12.24;nan
58753;BME280;44525;46.052;13.610;2023-03-03T13:15:39;100650.34;;;12.39;nan
58753;BME280;44525;46.052;13.610;2023-03-03T13:21:08;100640.91;;;12.50;nan
58753;BME280;44525;46.052;13.610;2023-03-03T13:31:56;100635.44;;;12.31;nan
58753;BME280;44525;46.052;13.610;2023-03-03T13:34:38;100642.09;;;12.44;nan
58753;BME280;44525;46.052;13.610;2023-03-03T13:37:26;100635.25;;;12.27;nan
58753;BME280;44525;46.052;13.610;2023-03-03T13:39:57;100633.97;;;12.20;nan
58753;BME280;44525;46.052;13.610;2023-03-03T13:42:32;100630.56;;;12.09;nan
58753;BME280;44525;46.052;13.610;2023-03-03T13:45:11;100624.44;;;12.22;nan
58753;BME280;44525;46.052;13.610;2023-03-03T13:47:49;100628.84;;;12.18;nan
58753;BME280;44525;46.052;13.610;2023-03-03T13:50:22;100626.25;;;12.27;nan
58753;BME280;44525;46.052;13.610;2023-03-03T13:53:11;100626.91;;;12.19;nan
58753;BME280;44525;46.052;13.610;2023-03-03T13:55:45;100617.22;;;12.32;nan
58753;BME280;44525;46.052;13.610;2023-03-03T13:58:37;100619.03;;;12.17;nan
58753;BME280;44525;46.052;13.610;2023-03-03T14:04:18;100616.59;;;12.16;nan
58753;BME280;44525;46.052;13.610;2023-03-03T14:06:40;100617.88;;;12.42;nan
58753;BME280;44525;46.052;13.610;2023-03-03T14:09:25;100622.69;;;11.83;nan
58753;BME280;44525;46.052;13.610;2023-03-03T14:15:10;100609.22;;;12.16;nan
58753;BME280;44525;46.052;13.610;2023-03-03T14:18:10;100619.63;;;12.14;nan
58753;BME280;44525;46.052;13.610;2023-03-03T14:20:53;100618.00;;;12.13;nan
58753;BME280;44525;46.052;13.610;2023-03-03T14:26:23;100615.81;;;12.34;nan
58753;BME280;44525;46.052;13.610;2023-03-03T14:28:50;100614.34;;;12.23;nan
58753;BME280;44525;46.052;13.610;2023-03-03T14:31:20;100612.38;;;12.48;nan
58753;BME280;44525;46.052;13.610;2023-03-03T14:33:57;100613.91;;;12.54;nan
58753;BME280;44525;46.052;13.610;2023-03-03T14:36:28;100603.59;;;12.51;nan
58753;BME280;44525;46.052;13.610;2023-03-03T14:38:55;100613.97;;;12.68;nan
58753;BME280;44525;46.052;13.610;2023-03-03T14:41:22;100611.97;;;12.73;nan
58753;BME280;44525;46.052;13.610;2023-03-03T14:44:00;100616.03;;;12.38;nan
58753;BME280;44525;46.052;13.610;2023-03-03T14:48:59;100616.94;;;12.52;nan
58753;BME280;44525;46.052;13.610;2023-03-03T14:53:54;100619.84;;;12.37;nan
58753;BME280;44525;46.052;13.610;2023-03-03T14:59:10;100610.59;;;12.38;nan
58753;BME280;44525;46.052;13.610;2023-03-03T15:01:40;100617.44;;;12.35;nan
58753;BME280;44525;46.052;13.610;2023-03-03T15:06:34;100620.84;;;12.46;nan
58753;BME280;44525;46.052;13.610;2023-03-03T15:09:39;100611.19;;;12.35;nan
58753;BME280;44525;46.052;13.610;2023-03-03T15:14:51;100611.63;;;11.99;nan
58753;BME280;44525;46.052;13.610;2023-03-03T15:17:25;100613.38;;;11.65;nan
58753;BME280;44525;46.052;13.610;2023-03-03T15:22:55;100615.31;;;11.84;nan
58753;BME280;44525;46.052;13.610;2023-03-03T15:28:25;100622.16;;;11.81;nan
58753;BME280;44525;46.052;13.610;2023-03-03T15:31:56;100612.97;;;11.77;nan
58753;BME280;44525;46.052;13.610;2023-03-03T15:34:50;100615.38;;;11.79;nan
58753;BME280;44525;46.052;13.610;2023-03-03T15:37:02;100612.19;;;11.71;nan
58753;BME280;44525;46.052;13.610;2023-03-03T15:42:26;100623.78;;;11.29;nan
58753;BME280;44525;46.052;13.610;2023-03-03T15:50:30;100629.31;;;11.18;nan
58753;BME280;44525;46.052;13.610;2023-03-03T15:53:18;100637.09;;;11.30;nan
58753;BME280;44525;46.052;13.610;2023-03-03T15:59:06;100639.53;;;11.32;nan
58753;BME280;44525;46.052;13.610;2023-03-03T16:04:09;100640.97;;;11.19;nan
58753;BME280;44525;46.052;13.610;2023-03-03T16:14:59;100648.97;;;11.10;nan
58753;BME280;44525;46.052;13.610;2023-03-03T16:20:42;100656.63;;;11.03;nan
58753;BME280;44525;46.052;13.610;2023-03-03T16:23:30;100664.03;;;10.92;nan
58753;BME280;44525;46.052;13.610;2023-03-03T16:28:59;100671.50;;;10.71;nan
58753;BME280;44525;46.052;13.610;2023-03-03T16:31:39;100668.34;;;10.59;nan
58753;BME280;44525;46.052;13.610;2023-03-03T16:34:24;100675.53;;;10.18;nan
58753;BME280;44525;46.052;13.610;2023-03-03T16:37:11;100661.91;;;10.29;nan
58753;BME280;44525;46.052;13.610;2023-03-03T16:42:31;100686.94;;;10.21;nan
58753;BME280;44525;46.052;13.610;2023-03-03T16:45:20;100685.09;;;10.00;nan
58753;BME280;44525;46.052;13.610;2023-03-03T16:56:13;100697.34;;;9.88;nan